Time;durP1;ratioP1;P1;durP2;ratioP2;P2;SDS_P1;SDS_P2;PMS_P1;PMS_P2;Temp;Humidity;BMP_temperature;BMP_pressure;BME280_temperature;BME280_humidity;BME280_pressure;Samples;Min_cycle;Max_cycle;Signal;HPM_P1;HPM_P2
2022/06/08 00:00:22;;;;;;;3.75;1.95;;;10.10;99.90;;;;;;5071443;28;20101;-82
2022/06/08 00:02:55;;;;;;;3.40;2.00;;;10.10;99.90;;;;;;5087330;28;20081;-82
2022/06/08 00:05:21;;;;;;;5.65;2.17;;;10.10;99.90;;;;;;5089258;28;20055;-82
2022/06/08 00:07:47;;;;;;;6.15;2.53;;;10.10;99.90;;;;;;5105053;28;20403;-82
2022/06/08 00:10:13;;;;;;;3.55;2.10;;;10.40;99.90;;;;;;5106927;28;20474;-82
2022/06/08 00:12:38;;;;;;;4.32;2.30;;;10.00;99.90;;;;;;5105549;28;20036;-82
2022/06/08 00:15:06;;;;;;;4.28;2.00;;;10.00;99.90;;;;;;5088299;28;20044;-82
2022/06/08 00:17:32;;;;;;;8.80;2.63;;;10.00;99.90;;;;;;5088176;28;20086;-82
2022/06/08 00:19:58;;;;;;;3.75;2.20;;;9.90;99.90;;;;;;5087310;28;20467;-82
2022/06/08 00:22:23;;;;;;;6.70;2.47;;;11.20;99.90;;;;;;5088983;28;20379;-81
2022/06/08 00:24:49;;;;;;;5.95;2.25;;;11.00;99.90;;;;;;5104604;28;20305;-82
2022/06/08 00:27:15;;;;;;;7.57;2.50;;;9.90;99.90;;;;;;5091779;28;20040;-82
2022/06/08 00:29:41;;;;;;;5.03;2.58;;;9.90;99.90;;;;;;5074533;28;20063;-82
2022/06/08 00:32:07;;;;;;;4.00;1.92;;;9.90;99.90;;;;;;5075612;28;20051;-82
2022/06/08 00:34:33;;;;;;;5.95;2.72;;;9.90;99.90;;;;;;5110540;28;20148;-82
2022/06/08 00:36:58;;;;;;;15.07;2.55;;;9.80;99.90;;;;;;5109179;28;20079;-82
2022/06/08 00:39:24;;;;;;;4.50;3.00;;;9.80;99.90;;;;;;5092568;28;20122;-82
2022/06/08 00:41:57;;;;;;;11.52;3.58;;;9.80;99.90;;;;;;5073313;28;20046;-82
2022/06/08 00:44:30;;;;;;;6.45;2.47;;;9.80;99.90;;;;;;5110835;28;20047;-82
2022/06/08 00:46:58;;;;;;;8.85;2.83;;;9.80;99.90;;;;;;5108227;28;20063;-82
2022/06/08 00:49:28;;;;;;;5.60;2.53;;;10.10;99.90;;;;;;5091619;28;20058;-82
2022/06/08 00:51:55;;;;;;;8.88;3.05;;;9.70;99.90;;;;;;5092262;28;20509;-82
2022/06/08 00:54:39;;;;;;;6.47;2.45;;;9.80;99.90;;;;;;5090300;28;20040;-82
2022/06/08 00:57:13;;;;;;;5.07;2.58;;;9.80;99.90;;;;;;5109010;28;20510;-82
2022/06/08 00:59:47;;;;;;;10.85;2.55;;;10.10;99.90;;;;;;5108896;28;20390;-82
2022/06/08 01:02:12;;;;;;;8.80;2.85;;;10.00;99.90;;;;;;5109738;28;20051;-82
2022/06/08 01:04:39;;;;;;;4.82;2.80;;;9.70;99.90;;;;;;5110090;28;20040;-82
2022/06/08 01:07:05;;;;;;;7.82;2.90;;;9.90;99.90;;;;;;5108751;28;20044;-82
2022/06/08 01:09:38;;;;;;;4.85;2.53;;;9.70;99.90;;;;;;5091837;28;20077;-82
2022/06/08 01:12:16;;;;;;;12.27;3.20;;;9.70;99.90;;;;;;5090073;28;20048;-82
2022/06/08 01:14:43;;;;;;;6.18;3.30;;;9.70;99.90;;;;;;5110151;28;20426;-82
2022/06/08 01:17:14;;;;;;;9.15;3.75;;;10.80;99.90;;;;;;5109144;28;20047;-82
2022/06/08 01:19:44;;;;;;;4.05;3.22;;;9.70;99.90;;;;;;5109106;28;20048;-82
2022/06/08 01:22:13;;;;;;;8.65;3.35;;;9.70;99.90;;;;;;5075195;28;20086;-82
2022/06/08 01:24:40;;;;;;;7.95;4.22;;;9.60;99.90;;;;;;5107881;28;20047;-82
2022/06/08 01:27:14;;;;;;;6.78;3.97;;;10.30;99.90;;;;;;5091547;28;20418;-80
2022/06/08 01:30:07;;;;;;;7.15;3.53;;;9.60;99.90;;;;;;5089716;28;20167;-80
2022/06/08 01:33:10;;;;;;;10.23;3.85;;;9.60;99.90;;;;;;5089960;28;20091;-80
2022/06/08 01:36:04;;;;;;;6.20;2.88;;;9.70;99.90;;;;;;5091390;28;20142;-80
2022/06/08 01:38:56;;;;;;;8.48;3.65;;;9.70;99.90;;;;;;5107725;28;20044;-80
2022/06/08 01:41:47;;;;;;;6.22;3.38;;;9.70;99.90;;;;;;5108051;28;20039;-80
2022/06/08 01:44:34;;;;;;;8.02;3.92;;;9.60;99.90;;;;;;5093102;28;20040;-80
2022/06/08 01:47:33;;;;;;;9.13;4.05;;;9.70;99.90;;;;;;5089965;28;20050;-80
2022/06/08 01:50:16;;;;;;;7.78;4.07;;;9.70;99.90;;;;;;5107631;28;20047;-80
2022/06/08 01:52:51;;;;;;;;;;;9.70;99.90;;;;;;5109957;28;20051;-80
2022/06/08 01:55:28;;;;;;;7.30;4.10;;;10.10;99.90;;;;;;5107592;28;20375;-81
2022/06/08 01:58:09;;;;;;;13.35;4.75;;;9.70;99.90;;;;;;5108599;28;20047;-81
2022/06/08 02:00:41;;;;;;;6.70;3.75;;;9.90;99.90;;;;;;5109705;28;20059;-81
2022/06/08 02:03:21;;;;;;;8.15;4.30;;;9.70;99.90;;;;;;5089390;28;20131;-81
2022/06/08 02:05:56;;;;;;;13.65;4.45;;;9.70;99.90;;;;;;5109220;28;20051;-81
2022/06/08 02:08:41;;;;;;;10.07;4.38;;;9.70;99.90;;;;;;5089298;28;20055;-81
2022/06/08 02:11:31;;;;;;;10.93;4.63;;;9.70;99.90;;;;;;5089451;28;20048;-81
2022/06/08 02:14:02;;;;;;;12.27;4.50;;;9.80;99.90;;;;;;5109368;28;20054;-80
2022/06/08 02:16:44;;;;;;;6.20;4.03;;;9.70;99.90;;;;;;5107342;28;20035;-81
2022/06/08 02:19:19;;;;;;;13.82;4.35;;;10.10;99.90;;;;;;5090381;28;20055;-80
2022/06/08 02:22:17;;;;;;;11.48;4.50;;;9.70;99.90;;;;;;5090138;28;20051;-81
2022/06/08 02:24:57;;;;;;;16.67;4.22;;;9.90;99.90;;;;;;5072334;28;20059;-81
2022/06/08 02:27:30;;;;;;;7.82;4.07;;;9.80;99.90;;;;;;5089915;28;20079;-81
2022/06/08 02:30:04;;;;;;;;;;;9.80;99.90;;;;;;5108327;28;20050;-81
2022/06/08 02:36:06;;;;;;;7.22;4.25;;;9.80;99.90;;;;;;5108356;28;20101;-80
2022/06/08 02:38:36;;;;;;;6.67;4.40;;;9.70;99.90;;;;;;5108066;28;20464;-80
2022/06/08 02:41:06;;;;;;;14.85;4.90;;;9.90;99.90;;;;;;5089047;28;20044;-81
2022/06/08 02:43:44;;;;;;;7.35;4.68;;;9.70;99.90;;;;;;5090321;28;20044;-81
2022/06/08 02:46:22;;;;;;;7.85;4.22;;;8.90;99.90;;;;;;5088346;28;20059;-80
2022/06/08 02:48:48;;;;;;;7.43;4.45;;;9.70;99.90;;;;;;5072719;28;20039;-81
2022/06/08 02:51:14;;;;;;;8.88;4.43;;;9.70;99.90;;;;;;5088545;28;20042;-81
2022/06/08 02:53:52;;;;;;;7.00;4.50;;;9.80;99.90;;;;;;5107418;28;20043;-80
2022/06/08 02:56:28;;;;;;;10.95;5.45;;;9.80;99.90;;;;;;5073025;28;20313;-81
2022/06/08 02:59:07;;;;;;;10.45;4.85;;;9.90;99.90;;;;;;5087419;28;20097;-80
2022/06/08 03:01:43;;;;;;;10.25;5.63;;;9.90;99.90;;;;;;5108350;28;20474;-81
2022/06/08 03:04:31;;;;;;;7.13;4.90;;;9.90;99.90;;;;;;5107156;28;20067;-80
2022/06/08 03:07:03;;;;;;;20.65;5.25;;;9.90;99.90;;;;;;5105998;28;20039;-81
2022/06/08 03:09:31;;;;;;;9.52;4.93;;;9.90;99.90;;;;;;5089792;28;20046;-81
2022/06/08 03:12:06;;;;;;;7.60;4.72;;;9.90;99.90;;;;;;5106024;28;20167;-81
2022/06/08 03:14:33;;;;;;;7.97;5.25;;;9.90;99.90;;;;;;5089496;28;20183;-81
2022/06/08 03:17:02;;;;;;;9.90;5.60;;;9.90;99.90;;;;;;5107428;28;20061;-80
2022/06/08 03:19:31;;;;;;;15.18;6.05;;;9.90;99.90;;;;;;5108476;28;20044;-81
2022/06/08 03:21:57;;;;;;;8.45;5.88;;;10.30;99.90;;;;;;5075460;28;20055;-80
2022/06/08 03:24:25;;;;;;;10.90;5.65;;;9.80;99.90;;;;;;5106887;28;20039;-81
2022/06/08 03:26:57;;;;;;;8.55;5.40;;;9.80;99.90;;;;;;5089908;28;20055;-81
2022/06/08 03:29:23;;;;;;;10.20;6.18;;;9.80;99.90;;;;;;5088764;28;20039;-80
2022/06/08 03:31:50;;;;;;;9.10;5.57;;;9.80;99.90;;;;;;5074770;28;20039;-80
2022/06/08 03:34:17;;;;;;;17.55;6.50;;;9.80;99.90;;;;;;5092563;28;20475;-81
2022/06/08 03:36:43;;;;;;;12.15;6.03;;;9.80;99.90;;;;;;5110473;28;20075;-80
2022/06/08 03:39:10;;;;;;;11.25;6.63;;;9.80;99.90;;;;;;5111977;28;20458;-81
2022/06/08 03:41:36;;;;;;;9.23;7.30;;;9.80;99.90;;;;;;5109656;28;20050;-81
2022/06/08 03:44:03;;;;;;;10.00;6.25;;;9.90;99.90;;;;;;5111103;28;20043;-81
2022/06/08 03:46:34;;;;;;;14.38;5.95;;;10.30;99.90;;;;;;5091276;28;20051;-82
2022/06/08 03:49:01;;;;;;;10.75;6.80;;;9.90;99.90;;;;;;5092825;28;20403;-81
2022/06/08 03:51:28;;;;;;;13.00;7.68;;;9.90;99.90;;;;;;5110893;28;20444;-81
2022/06/08 03:54:05;;;;;;;9.48;6.80;;;10.00;99.90;;;;;;5091074;28;20591;-81
2022/06/08 03:56:33;;;;;;;17.58;8.45;;;10.10;99.90;;;;;;5111465;28;20083;-81
2022/06/08 03:58:59;;;;;;;12.75;7.50;;;10.20;99.90;;;;;;5108620;28;20124;-81
2022/06/08 04:01:25;;;;;;;14.40;8.40;;;10.20;99.90;;;;;;5110477;28;20428;-81
2022/06/08 04:03:52;;;;;;;15.02;8.23;;;10.30;99.90;;;;;;5109580;28;20040;-81
2022/06/08 04:06:20;;;;;;;14.38;9.25;;;10.30;99.90;;;;;;5091518;28;20467;-81
2022/06/08 04:08:46;;;;;;;16.88;10.00;;;10.50;99.90;;;;;;5092932;28;20044;-81
2022/06/08 04:11:12;;;;;;;16.88;9.85;;;10.50;99.90;;;;;;5109497;28;20061;-81
2022/06/08 04:13:38;;;;;;;14.60;9.18;;;10.50;99.90;;;;;;5111192;28;20149;-81
2022/06/08 04:16:04;;;;;;;16.33;10.60;;;10.70;99.90;;;;;;5109338;28;20502;-82
2022/06/08 04:18:32;;;;;;;14.68;8.35;;;10.70;99.90;;;;;;5091985;28;20035;-81
2022/06/08 04:21:00;;;;;;;11.80;8.57;;;10.80;99.90;;;;;;5110083;28;20489;-82
2022/06/08 04:23:27;;;;;;;19.02;8.45;;;10.80;99.90;;;;;;5110787;28;20521;-82
2022/06/08 04:25:54;;;;;;;20.92;8.63;;;10.90;99.90;;;;;;5092706;28;20103;-81
2022/06/08 04:28:21;;;;;;;11.82;8.07;;;11.20;99.90;;;;;;5109164;28;20096;-81
2022/06/08 04:30:46;;;;;;;18.13;9.57;;;11.00;99.90;;;;;;5111341;28;20087;-81
2022/06/08 04:33:12;;;;;;;14.25;8.23;;;11.10;99.90;;;;;;5109200;28;20039;-82
2022/06/08 04:35:39;;;;;;;17.38;8.65;;;11.10;99.90;;;;;;5091001;28;20092;-81
2022/06/08 04:38:06;;;;;;;20.92;9.77;;;11.20;99.90;;;;;;5090353;28;20371;-83
2022/06/08 04:40:33;;;;;;;16.80;9.10;;;11.30;99.90;;;;;;5074677;28;20044;-82
2022/06/08 04:42:58;;;;;;;13.77;8.77;;;11.40;99.90;;;;;;5107838;28;20039;-81
2022/06/08 04:45:25;;;;;;;15.20;9.75;;;11.70;99.90;;;;;;5086653;28;20055;-81
2022/06/08 04:47:51;;;;;;;18.23;9.65;;;11.80;99.90;;;;;;5107028;28;20048;-82
2022/06/08 04:50:16;;;;;;;15.02;8.45;;;11.90;99.90;;;;;;5104697;28;20498;-82
2022/06/08 04:52:42;;;;;;;16.40;9.13;;;12.10;99.90;;;;;;5106775;28;20040;-82
2022/06/08 04:55:11;;;;;;;14.23;8.68;;;12.20;99.90;;;;;;5104244;28;20070;-81
2022/06/08 04:57:37;;;;;;;16.13;8.35;;;12.50;99.90;;;;;;5086375;28;20090;-81
2022/06/08 05:00:14;;;;;;;20.45;9.57;;;12.40;99.90;;;;;;5105493;28;20506;-81
2022/06/08 05:02:44;;;;;;;19.45;8.82;;;12.60;99.90;;;;;;5084895;28;20565;-80
2022/06/08 05:05:12;;;;;;;20.48;9.32;;;12.70;99.90;;;;;;5087089;28;20586;-82
2022/06/08 05:07:38;;;;;;;16.30;9.77;;;12.80;99.90;;;;;;5103590;28;20493;-84
2022/06/08 05:10:05;;;;;;;14.52;9.73;;;13.30;99.90;;;;;;5105629;28;20392;-82
2022/06/08 05:12:31;;;;;;;14.48;8.77;;;13.10;99.90;;;;;;5105094;28;20059;-81
2022/06/08 05:14:57;;;;;;;16.38;8.85;;;13.50;99.90;;;;;;5107989;28;20047;-82
2022/06/08 05:17:22;;;;;;;18.55;9.88;;;14.10;99.90;;;;;;5090741;28;20097;-81
2022/06/08 05:19:48;;;;;;;13.15;8.85;;;13.40;99.90;;;;;;5107337;28;20145;-82
2022/06/08 05:22:14;;;;;;;13.10;9.00;;;13.50;99.90;;;;;;5109931;28;20048;-82
2022/06/08 05:24:39;;;;;;;13.77;9.15;;;13.50;99.90;;;;;;5107011;28;20039;-80
2022/06/08 05:27:05;;;;;;;16.33;10.57;;;14.30;99.90;;;;;;5108587;28;20092;-80
2022/06/08 05:29:31;;;;;;;17.73;10.50;;;13.80;99.90;;;;;;5107316;28;20051;-80
2022/06/08 05:31:56;;;;;;;15.93;9.82;;;14.50;99.90;;;;;;5108450;28;20044;-80
2022/06/08 05:34:22;;;;;;;14.02;9.70;;;13.60;99.90;;;;;;5108765;28;20035;-80
2022/06/08 05:36:48;;;;;;;16.52;10.02;;;13.50;99.90;;;;;;5107341;28;20035;-80
2022/06/08 05:39:14;;;;;;;14.73;10.45;;;13.80;99.90;;;;;;5091060;28;20050;-80
2022/06/08 05:41:39;;;;;;;20.88;11.13;;;13.60;99.90;;;;;;5107104;28;20078;-81
2022/06/08 05:44:05;;;;;;;19.42;10.13;;;13.60;99.90;;;;;;5109850;28;20078;-82
2022/06/08 05:46:31;;;;;;;23.10;11.40;;;13.60;99.90;;;;;;5090852;28;20084;-83
2022/06/08 05:48:57;;;;;;;15.80;10.77;;;13.70;99.90;;;;;;5094270;28;20202;-81
2022/06/08 05:51:22;;;;;;;17.77;12.20;;;13.70;99.90;;;;;;5108299;28;20604;-80
2022/06/08 05:53:48;;;;;;;18.60;11.05;;;13.70;99.90;;;;;;5106724;28;20055;-82
2022/06/08 05:56:14;;;;;;;17.73;9.98;;;13.80;99.90;;;;;;5090648;28;20039;-83
2022/06/08 05:58:39;;;;;;;23.75;12.13;;;13.90;99.90;;;;;;5088785;28;20597;-85
2022/06/08 06:01:05;;;;;;;14.15;10.65;;;13.90;99.90;;;;;;5091103;28;20130;-85
2022/06/08 06:03:30;;;;;;;21.70;11.35;;;14.10;99.90;;;;;;5072522;28;20043;-82
2022/06/08 06:05:57;;;;;;;21.63;11.07;;;15.20;99.90;;;;;;5109065;28;20044;-85
2022/06/08 06:08:23;;;;;;;17.85;10.48;;;14.10;99.90;;;;;;5090495;28;20090;-88
2022/06/08 06:10:49;;;;;;;16.17;10.77;;;14.60;99.90;;;;;;5072535;28;20044;-86
2022/06/08 06:13:15;;;;;;;19.13;12.18;;;14.30;99.90;;;;;;5073906;28;20067;-86
2022/06/08 06:15:41;;;;;;;14.73;10.02;;;14.40;99.90;;;;;;5072183;28;20036;-86
2022/06/08 06:18:07;;;;;;;16.65;10.68;;;14.50;99.90;;;;;;5090407;28;20640;-84
2022/06/08 06:20:33;;;;;;;17.83;10.40;;;14.70;99.90;;;;;;5088871;28;20074;-86
2022/06/08 06:22:59;;;;;;;17.25;10.48;;;14.80;99.90;;;;;;5090612;28;20410;-85
2022/06/08 06:25:25;;;;;;;16.20;8.98;;;15.00;99.90;;;;;;5107724;28;20048;-86
2022/06/08 06:27:51;;;;;;;17.65;10.38;;;15.10;99.90;;;;;;5088639;28;20039;-85
2022/06/08 06:30:17;;;;;;;14.75;9.35;;;15.20;99.90;;;;;;5090734;28;20134;-86
2022/06/08 06:32:45;;;;;;;16.70;9.05;;;15.30;99.90;;;;;;5038440;28;20510;-86
2022/06/08 06:35:21;;;;;;;14.82;9.23;;;15.40;99.90;;;;;;5090217;28;20118;-80
2022/06/08 06:37:47;;;;;;;13.90;9.18;;;15.50;99.90;;;;;;5106622;28;20051;-84
2022/06/08 06:40:13;;;;;;;11.63;9.70;;;15.50;99.90;;;;;;5090064;28;20184;-81
2022/06/08 06:42:39;;;;;;;15.00;8.82;;;15.60;99.90;;;;;;5089457;28;20049;-84
2022/06/08 06:45:06;;;;;;;13.40;8.98;;;15.70;99.90;;;;;;5106894;28;20043;-84
2022/06/08 06:47:31;;;;;;;12.13;8.40;;;15.70;99.90;;;;;;5090117;28;20516;-84
2022/06/08 06:49:57;;;;;;;13.85;8.80;;;15.90;99.90;;;;;;5087628;28;20075;-84
2022/06/08 06:52:23;;;;;;;12.65;8.30;;;15.90;99.90;;;;;;5039462;28;20078;-85
2022/06/08 06:54:48;;;;;;;14.02;9.45;;;16.00;99.90;;;;;;5070917;28;20061;-83
2022/06/08 06:57:14;;;;;;;13.20;8.75;;;16.10;99.90;;;;;;5089589;28;20043;-85
2022/06/08 06:59:41;;;;;;;12.27;8.07;;;15.70;99.90;;;;;;5072340;28;20075;-83
2022/06/08 07:02:14;;;;;;;13.60;7.72;;;16.20;99.90;;;;;;5088470;28;20054;-83
2022/06/08 07:04:40;;;;;;;12.70;8.85;;;16.30;99.90;;;;;;5089641;28;20051;-83
2022/06/08 07:07:06;;;;;;;10.90;8.48;;;16.30;99.90;;;;;;5087819;28;20195;-83
2022/06/08 07:09:32;;;;;;;12.43;8.10;;;16.40;99.90;;;;;;5089100;28;20503;-84
2022/06/08 07:11:58;;;;;;;11.77;8.02;;;16.50;99.90;;;;;;5087638;28;20035;-83
2022/06/08 07:14:24;;;;;;;12.45;8.18;;;16.70;99.90;;;;;;5088813;28;20039;-84
2022/06/08 07:16:51;;;;;;;16.50;7.85;;;16.80;99.90;;;;;;5088859;28;20837;-83
2022/06/08 07:19:18;;;;;;;12.70;7.75;;;16.80;99.90;;;;;;5106339;28;20243;-83
2022/06/08 07:21:44;;;;;;;13.07;8.20;;;16.90;99.90;;;;;;5089321;28;20475;-84
2022/06/08 07:24:17;;;;;;;12.40;7.30;;;17.10;99.90;;;;;;5086873;28;20053;-83
2022/06/08 07:26:43;;;;;;;13.63;7.72;;;16.90;99.90;;;;;;5088842;28;20047;-83
2022/06/08 07:29:09;;;;;;;14.65;8.15;;;16.80;99.90;;;;;;5070379;28;20050;-84
2022/06/08 07:31:35;;;;;;;10.48;7.32;;;16.90;99.90;;;;;;5088450;28;20058;-83
2022/06/08 07:34:01;;;;;;;9.95;7.20;;;17.00;99.90;;;;;;5088657;28;20132;-84
2022/06/08 07:36:27;;;;;;;10.02;6.93;;;17.20;99.90;;;;;;5103761;28;20073;-85
2022/06/08 07:38:52;;;;;;;12.32;6.55;;;17.40;99.90;;;;;;5088795;28;20058;-84
2022/06/08 07:41:18;;;;;;;8.50;5.95;;;17.60;99.90;;;;;;5087154;28;20043;-84
2022/06/08 07:43:44;;;;;;;8.73;5.85;;;17.80;99.90;;;;;;5105962;28;20489;-82
2022/06/08 07:46:09;;;;;;;8.52;5.85;;;17.90;99.90;;;;;;5105817;28;20089;-83
2022/06/08 07:51:20;;;;;;;9.15;5.18;;;18.20;99.90;;;;;;5091765;28;20044;-82
2022/06/08 07:53:45;;;;;;;9.82;5.15;;;18.30;99.90;;;;;;5105032;28;20074;-83
2022/06/08 07:56:11;;;;;;;6.63;4.72;;;18.40;99.90;;;;;;5108342;28;20044;-80
2022/06/08 07:58:37;;;;;;;8.50;5.43;;;18.50;99.90;;;;;;5086381;28;20064;-82
2022/06/08 08:01:06;;;;;;;9.32;5.05;;;18.50;99.90;;;;;;5088667;28;20055;-80
2022/06/08 08:03:31;;;;;;;5.40;4.35;;;18.50;99.90;;;;;;5071049;28;20040;-80
2022/06/08 08:05:58;;;;;;;5.78;4.22;;;18.50;99.90;;;;;;5088569;28;20192;-80
2022/06/08 08:08:24;;;;;;;8.07;4.40;;;18.50;99.90;;;;;;5105216;28;20051;-80
2022/06/08 08:10:49;;;;;;;5.45;3.83;;;18.60;99.90;;;;;;5105539;28;20047;-81
2022/06/08 08:13:15;;;;;;;5.22;3.85;;;18.50;99.90;;;;;;5107881;28;20042;-82
2022/06/08 08:15:42;;;;;;;5.15;3.65;;;18.50;99.90;;;;;;5106837;28;20043;-81
2022/06/08 08:18:09;;;;;;;8.68;3.85;;;18.60;99.90;;;;;;5111289;28;20054;-82
2022/06/08 08:20:35;;;;;;;4.75;3.10;;;18.60;99.90;;;;;;5105849;28;20118;-81
2022/06/08 08:23:01;;;;;;;8.30;3.53;;;19.10;99.90;;;;;;5106245;28;20501;-81
2022/06/08 08:25:28;;;;;;;4.70;3.13;;;18.80;99.90;;;;;;5106440;28;20090;-81
2022/06/08 08:27:55;;;;;;;7.03;3.25;;;19.00;99.90;;;;;;5087117;28;20032;-82
2022/06/08 08:30:24;;;;;;;4.93;3.00;;;19.00;99.90;;;;;;5107331;28;20043;-84
2022/06/08 08:32:50;;;;;;;4.38;2.90;;;19.20;99.90;;;;;;5087003;28;20244;-82
2022/06/08 08:35:16;;;;;;;3.85;3.10;;;19.30;99.90;;;;;;5088723;28;20392;-82
2022/06/08 08:37:43;;;;;;;5.30;2.90;;;19.30;99.90;;;;;;5070796;28;20515;-81
2022/06/08 08:40:28;;;;;;;4.90;2.78;;;19.40;99.90;;;;;;5088346;28;20400;-83
2022/06/08 08:42:54;;;;;;;3.47;2.35;;;19.40;99.90;;;;;;5088965;28;20497;-82
2022/06/08 08:45:20;;;;;;;4.45;2.25;;;19.60;99.90;;;;;;5086517;28;20074;-83
2022/06/08 08:48:01;;;;;;;5.75;2.25;;;19.60;99.90;;;;;;5091048;28;20054;-82
2022/06/08 08:50:52;;;;;;;2.95;2.00;;;19.70;99.90;;;;;;5107600;28;20578;-81
2022/06/08 08:53:30;;;;;;;3.00;1.58;;;19.80;99.90;;;;;;5109960;27;20384;-82
2022/06/08 08:56:03;;;;;;;3.65;1.50;;;19.90;99.90;;;;;;5110650;28;20046;-81
2022/06/08 08:58:41;;;;;;;3.17;1.40;;;19.90;99.90;;;;;;5108215;28;20143;-81
2022/06/08 09:01:22;;;;;;;3.97;1.30;;;19.90;99.90;;;;;;5110605;28;20044;-82
2022/06/08 09:03:59;;;;;;;3.75;1.90;;;20.00;99.90;;;;;;5091304;28;20459;-82
2022/06/08 09:06:29;;;;;;;3.40;0.90;;;20.20;99.90;;;;;;5090670;28;20044;-82
2022/06/08 09:09:00;;;;;;;1.75;0.85;;;20.30;99.90;;;;;;5092334;28;20096;-82
2022/06/08 09:11:38;;;;;;;3.97;1.20;;;20.40;99.90;;;;;;5089949;28;20044;-82
2022/06/08 09:14:19;;;;;;;1.48;0.70;;;20.90;99.90;;;;;;5074354;28;20079;-82
2022/06/08 09:17:08;;;;;;;3.05;0.75;;;21.20;99.90;;;;;;5074388;28;20071;-82
2022/06/08 09:19:43;;;;;;;2.58;0.60;;;21.50;99.90;;;;;;5073279;28;20122;-82
2022/06/08 09:22:09;;;;;;;2.70;0.60;;;21.50;99.90;;;;;;5091619;28;20054;-82
2022/06/08 09:24:53;;;;;;;3.83;0.65;;;21.60;99.90;;;;;;5072670;28;20577;-80
2022/06/08 09:27:30;;;;;;;2.47;0.70;;;21.70;99.90;;;;;;5090794;28;20047;-83
2022/06/08 09:29:58;;;;;;;4.13;0.80;;;21.90;99.90;;;;;;5109945;28;20042;-86
2022/06/08 09:32:46;;;;;;;6.40;0.90;;;21.90;99.90;;;;;;5073068;28;20051;-84
2022/06/08 09:35:21;;;;;;;4.43;0.57;;;21.70;99.90;;;;;;5109667;28;20032;-82
2022/06/08 09:37:49;;;;;;;1.60;0.68;;;21.60;99.90;;;;;;5090582;28;20143;-83
2022/06/08 09:40:36;;;;;;;1.40;0.80;;;21.40;99.90;;;;;;5108652;28;20478;-81
2022/06/08 09:43:27;;;;;;;1.10;0.60;;;20.30;99.90;;;;;;5091910;28;20043;-82
2022/06/08 09:51:25;;;;;;;1.05;0.65;;;21.10;99.90;;;;;;5108247;28;20442;-84
2022/06/08 09:52:14;;;;;;;2.00;0.60;;;21.40;99.90;;;;;;5109863;28;20105;-83
2022/06/08 09:54:48;;;;;;;4.63;0.88;;;21.60;99.90;;;;;;5108037;28;20054;-83
2022/06/08 09:57:36;;;;;;;1.88;0.75;;;21.90;99.90;;;;;;5109156;28;20097;-83
2022/06/08 10:00:17;;;;;;;1.45;0.40;;;22.00;99.90;;;;;;5090901;28;20396;-83
2022/06/08 10:02:51;;;;;;;1.52;0.63;;;21.90;99.90;;;;;;5089495;28;20050;-82
2022/06/08 10:06:04;;;;;;;1.35;0.38;;;21.90;99.90;;;;;;5090947;28;20051;-82
2022/06/08 10:08:56;;;;;;;1.58;0.70;;;22.00;99.90;;;;;;5105440;28;20052;-84
2022/06/08 10:11:45;;;;;;;1.67;0.60;;;22.00;99.90;;;;;;5107137;28;20035;-83
2022/06/08 10:14:16;;;;;;;1.67;0.50;;;21.90;99.90;;;;;;5108569;28;20043;-83
2022/06/08 10:16:54;;;;;;;3.28;0.63;;;21.90;99.90;;;;;;5089399;28;20525;-83
2022/06/08 10:19:30;;;;;;;0.70;0.43;;;21.80;99.90;;;;;;5107236;28;20502;-83
2022/06/08 10:21:56;;;;;;;3.17;0.73;;;21.80;99.90;;;;;;5108973;28;20299;-83
2022/06/08 10:24:49;;;;;;;1.08;0.80;;;21.70;99.90;;;;;;5087800;28;20040;-83
2022/06/08 10:27:29;;;;;;;2.05;1.00;;;21.60;99.90;;;;;;5079165;28;20540;-84
2022/06/08 10:30:07;;;;;;;2.35;0.80;;;21.40;99.90;;;;;;5108874;28;20481;-84
2022/06/08 10:32:38;;;;;;;3.25;1.30;;;21.30;99.90;;;;;;5088240;28;20051;-84
2022/06/08 10:35:21;;;;;;;1.77;1.00;;;21.10;99.90;;;;;;5090069;28;20043;-84
2022/06/08 10:37:47;;;;;;;2.05;1.10;;;20.90;99.90;;;;;;5088695;28;20054;-84
2022/06/08 10:40:21;;;;;;;3.10;1.25;;;20.80;99.90;;;;;;5089257;28;20043;-84
2022/06/08 10:42:48;;;;;;;3.40;1.17;;;20.70;99.90;;;;;;5091247;28;20047;-84
2022/06/08 10:45:23;;;;;;;1.60;0.90;;;20.80;99.90;;;;;;5110615;28;20044;-85
2022/06/08 10:48:00;;;;;;;3.10;1.23;;;21.10;99.90;;;;;;5098694;28;20107;-84
2022/06/08 10:50:29;;;;;;;2.17;1.25;;;21.40;99.90;;;;;;5059306;28;20483;-84
2022/06/08 10:54:53;;;;;;;2.70;1.05;;;21.60;99.90;;;;;;5089002;28;20082;-85
2022/06/08 10:55:41;;;;;;;1.27;1.02;;;21.60;99.90;;;;;;5089934;28;20096;-84
2022/06/08 10:58:15;;;;;;;1.95;1.23;;;21.50;99.90;;;;;;5086877;28;20052;-85
2022/06/08 11:00:58;;;;;;;3.22;1.45;;;21.30;99.90;;;;;;5089989;28;20059;-82
2022/06/08 11:03:39;;;;;;;2.53;1.17;;;21.30;99.90;;;;;;5106568;28;20515;-87
2022/06/08 11:06:47;;;;;;;3.25;1.30;;;21.40;99.90;;;;;;5107233;28;20046;-84
2022/06/08 11:09:47;;;;;;;3.35;1.55;;;21.60;99.90;;;;;;5089502;28;20460;-82
2022/06/08 11:12:12;;;;;;;3.30;1.40;;;21.80;99.90;;;;;;5072634;28;20093;-83
2022/06/08 11:14:44;;;;;;;3.15;1.20;;;21.90;99.90;;;;;;5106043;28;20071;-83
2022/06/08 11:17:20;;;;;;;3.38;2.00;;;21.90;99.90;;;;;;5088757;28;20058;-83
2022/06/08 11:19:46;;;;;;;3.38;1.77;;;21.90;99.90;;;;;;5105245;28;20165;-83
2022/06/08 11:22:36;;;;;;;2.47;1.63;;;21.90;99.90;;;;;;5107405;28;20400;-83
2022/06/08 11:25:10;;;;;;;2.47;1.55;;;21.80;99.90;;;;;;5106099;28;20035;-82
2022/06/08 11:27:38;;;;;;;2.67;1.58;;;21.70;99.90;;;;;;5087157;28;20118;-85
2022/06/08 11:30:27;;;;;;;3.13;1.67;;;21.50;99.90;;;;;;5088635;28;20070;-83
2022/06/08 11:32:52;;;;;;;3.35;1.65;;;21.30;99.90;;;;;;5104782;28;20051;-81
2022/06/08 11:35:36;;;;;;;4.95;1.48;;;21.00;99.90;;;;;;5107232;28;20576;-83
2022/06/08 11:38:08;;;;;;;4.60;2.10;;;20.60;99.90;;;;;;5106244;28;20051;-83
2022/06/08 11:40:35;;;;;;;2.97;1.50;;;20.60;99.90;;;;;;5106126;28;20040;-83
2022/06/08 11:43:19;;;;;;;3.15;2.13;;;20.40;99.90;;;;;;5107488;28;20040;-84
2022/06/08 11:45:52;;;;;;;4.72;2.08;;;20.20;99.90;;;;;;5087764;28;20043;-84
2022/06/08 11:48:20;;;;;;;6.90;2.28;;;20.00;99.90;;;;;;5088404;28;20323;-83
2022/06/08 11:51:04;;;;;;;8.27;2.10;;;19.90;99.90;;;;;;5087634;28;20079;-86
2022/06/08 11:53:35;;;;;;;7.20;2.65;;;19.80;99.90;;;;;;5070216;28;20078;-86
2022/06/08 11:56:15;;;;;;;8.60;2.97;;;19.70;99.90;;;;;;5072782;28;20386;-86
2022/06/08 11:58:50;;;;;;;5.78;2.67;;;19.50;99.90;;;;;;5104508;28;20409;-86
2022/06/08 12:01:23;;;;;;;6.40;3.00;;;19.20;99.90;;;;;;5085464;28;20059;-87
2022/06/08 12:03:58;;;;;;;;;;;19.00;99.90;;;;;;5106570;28;20051;-86
2022/06/08 12:06:37;;;;;;;5.25;2.58;;;18.20;99.90;;;;;;5086775;28;20044;-86
2022/06/08 12:09:26;;;;;;;5.55;2.63;;;18.80;99.90;;;;;;5089352;28;20226;-85
2022/06/08 12:12:06;;;;;;;9.43;3.38;;;18.80;99.90;;;;;;5105027;28;20055;-85
2022/06/08 12:14:38;;;;;;;4.88;2.75;;;18.90;99.90;;;;;;5106002;28;20403;-85
2022/06/08 12:17:04;;;;;;;6.18;3.17;;;18.90;99.90;;;;;;5088200;28;20040;-87
2022/06/08 12:19:42;;;;;;;7.40;3.15;;;18.90;99.90;;;;;;5087299;28;20472;-90
2022/06/08 12:22:24;;;;;;;5.18;3.22;;;19.10;99.90;;;;;;5073506;28;20486;-85
2022/06/08 12:25:08;;;;;;;4.90;3.53;;;19.00;99.90;;;;;;5091175;28;20064;-85
2022/06/08 12:27:54;;;;;;;4.00;2.60;;;19.00;99.90;;;;;;5091457;28;20044;-84
2022/06/08 12:30:33;;;;;;;5.82;3.42;;;19.00;99.90;;;;;;5092525;28;20054;-85
2022/06/08 12:33:14;;;;;;;6.63;3.90;;;19.00;99.90;;;;;;5090614;28;20089;-86
2022/06/08 12:36:11;;;;;;;7.88;3.70;;;19.20;99.90;;;;;;5074681;28;20067;-86
2022/06/08 12:38:39;;;;;;;6.65;3.75;;;19.40;99.90;;;;;;5091375;28;20051;-86
2022/06/08 12:41:20;;;;;;;5.00;3.25;;;19.80;99.90;;;;;;5090576;28;20040;-88
2022/06/08 12:44:06;;;;;;;6.18;3.17;;;20.10;99.90;;;;;;5092624;28;20096;-86
2022/06/08 12:46:36;;;;;;;4.88;3.03;;;20.60;99.90;;;;;;5108406;28;20418;-86
2022/06/08 12:49:18;;;;;;;6.45;2.67;;;20.20;99.90;;;;;;5057371;28;20090;-90
2022/06/08 12:51:48;;;;;;;6.72;3.25;;;19.30;99.90;;;;;;5075121;28;20449;-85
2022/06/08 12:54:33;;;;;;;7.32;3.20;;;19.70;99.90;;;;;;5090867;28;20043;-84
2022/06/08 12:57:10;;;;;;;5.95;2.40;;;19.30;99.90;;;;;;5110536;28;20040;-85
2022/06/08 12:59:37;;;;;;;5.15;1.98;;;18.90;99.90;;;;;;5091032;28;20047;-86
2022/06/08 13:02:14;;;;;;;4.13;1.60;;;18.60;99.90;;;;;;5091145;28;20134;-85
2022/06/08 13:04:40;;;;;;;3.22;0.70;;;18.40;99.90;;;;;;5110829;28;20379;-85
2022/06/08 13:07:09;;;;;;;3.28;0.60;;;18.20;99.90;;;;;;5090043;28;20048;-85
2022/06/08 13:09:34;;;;;;;2.83;0.60;;;18.30;99.90;;;;;;5091934;28;20054;-86
2022/06/08 13:12:00;;;;;;;1.85;0.50;;;17.90;99.90;;;;;;5108869;28;20036;-82
2022/06/08 13:14:26;;;;;;;6.57;0.70;;;17.70;99.90;;;;;;5109946;28;20047;-83
2022/06/08 13:16:52;;;;;;;3.05;0.90;;;17.60;99.90;;;;;;5109972;28;20102;-83
2022/06/08 13:19:18;;;;;;;2.75;0.95;;;17.50;99.90;;;;;;5093078;28;20047;-84